sensor_id;sensor_type;location;lat;lon;timestamp;temperature;humidity
23124;DHT22;11731;48.592;8.858;2024-03-23T01:32:41;10.80;99.90
23124;DHT22;11731;48.592;8.858;2024-03-23T01:54:01;11.10;99.90
23124;DHT22;11731;48.592;8.858;2024-03-23T02:02:36;11.50;99.90
23124;DHT22;11731;48.592;8.858;2024-03-23T02:07:13;11.30;99.90
23124;DHT22;11731;48.592;8.858;2024-03-23T02:29:53;11.00;99.90
23124;DHT22;11731;48.592;8.858;2024-03-23T02:42:47;10.90;99.90
23124;DHT22;11731;48.592;8.858;2024-03-23T03:15:28;11.10;99.90
23124;DHT22;11731;48.592;8.858;2024-03-23T03:18:06;10.80;99.90
23124;DHT22;11731;48.592;8.858;2024-03-23T03:22:05;10.80;99.90
23124;DHT22;11731;48.592;8.858;2024-03-23T03:26:40;11.10;99.90
23124;DHT22;11731;48.592;8.858;2024-03-23T03:27:45;10.80;99.90
23124;DHT22;11731;48.592;8.858;2024-03-23T03:37:05;11.00;99.90
23124;DHT22;11731;48.592;8.858;2024-03-23T03:49:58;11.20;99.90
23124;DHT22;11731;48.592;8.858;2024-03-23T04:18:28;10.80;99.90
23124;DHT22;11731;48.592;8.858;2024-03-23T04:40:45;11.00;99.90
23124;DHT22;11731;48.592;8.858;2024-03-23T04:51:27;10.30;99.90
23124;DHT22;11731;48.592;8.858;2024-03-23T05:10:09;10.00;99.90
23124;DHT22;11731;48.592;8.858;2024-03-23T06:10:11;8.90;99.90
23124;DHT22;11731;48.592;8.858;2024-03-23T06:12:38;8.70;99.90
23124;DHT22;11731;48.592;8.858;2024-03-23T06:15:04;8.40;99.90
23124;DHT22;11731;48.592;8.858;2024-03-23T06:17:33;8.40;99.90
23124;DHT22;11731;48.592;8.858;2024-03-23T06:19:59;8.30;99.90
23124;DHT22;11731;48.592;8.858;2024-03-23T06:22:26;8.30;99.90
23124;DHT22;11731;48.592;8.858;2024-03-23T06:24:52;8.10;99.90
23124;DHT22;11731;48.592;8.858;2024-03-23T06:27:20;8.20;99.90
23124;DHT22;11731;48.592;8.858;2024-03-23T06:29:46;8.20;99.90
23124;DHT22;11731;48.592;8.858;2024-03-23T06:32:13;8.30;99.90
23124;DHT22;11731;48.592;8.858;2024-03-23T06:34:41;8.40;99.90
23124;DHT22;11731;48.592;8.858;2024-03-23T06:37:08;8.50;99.90
23124;DHT22;11731;48.592;8.858;2024-03-23T06:39:35;8.60;99.90
23124;DHT22;11731;48.592;8.858;2024-03-23T06:42:02;8.70;99.90
23124;DHT22;11731;48.592;8.858;2024-03-23T06:44:29;8.60;99.90
23124;DHT22;11731;48.592;8.858;2024-03-23T06:46:56;8.40;99.90
23124;DHT22;11731;48.592;8.858;2024-03-23T06:49:23;8.50;99.90
23124;DHT22;11731;48.592;8.858;2024-03-23T06:51:50;8.50;99.90
23124;DHT22;11731;48.592;8.858;2024-03-23T06:54:16;8.50;99.90
23124;DHT22;11731;48.592;8.858;2024-03-23T06:56:44;8.40;99.90
23124;DHT22;11731;48.592;8.858;2024-03-23T06:59:10;8.40;99.90
23124;DHT22;11731;48.592;8.858;2024-03-23T07:01:38;8.30;99.90
23124;DHT22;11731;48.592;8.858;2024-03-23T07:04:04;8.30;99.90
23124;DHT22;11731;48.592;8.858;2024-03-23T07:06:31;8.30;99.90
23124;DHT22;11731;48.592;8.858;2024-03-23T07:08:57;8.40;99.90
23124;DHT22;11731;48.592;8.858;2024-03-23T07:11:24;8.60;99.90
23124;DHT22;11731;48.592;8.858;2024-03-23T07:13:51;8.90;99.90
23124;DHT22;11731;48.592;8.858;2024-03-23T07:16:18;9.10;99.90
23124;DHT22;11731;48.592;8.858;2024-03-23T07:18:45;9.10;99.90
23124;DHT22;11731;48.592;8.858;2024-03-23T07:21:12;9.00;99.90
23124;DHT22;11731;48.592;8.858;2024-03-23T07:23:42;9.00;99.90
23124;DHT22;11731;48.592;8.858;2024-03-23T07:26:10;8.90;99.90
23124;DHT22;11731;48.592;8.858;2024-03-23T07:28:35;9.10;99.90
23124;DHT22;11731;48.592;8.858;2024-03-23T07:31:04;9.10;99.90
23124;DHT22;11731;48.592;8.858;2024-03-23T07:33:30;9.10;99.90
23124;DHT22;11731;48.592;8.858;2024-03-23T07:35:59;9.00;99.90
23124;DHT22;11731;48.592;8.858;2024-03-23T07:38:26;8.90;99.90
23124;DHT22;11731;48.592;8.858;2024-03-23T07:41:02;8.70;99.90
23124;DHT22;11731;48.592;8.858;2024-03-23T07:43:28;8.60;99.90
23124;DHT22;11731;48.592;8.858;2024-03-23T07:45:55;8.80;99.90
23124;DHT22;11731;48.592;8.858;2024-03-23T07:48:21;8.60;99.90
23124;DHT22;11731;48.592;8.858;2024-03-23T07:51:01;8.50;99.90
23124;DHT22;11731;48.592;8.858;2024-03-23T07:53:27;8.20;99.90
23124;DHT22;11731;48.592;8.858;2024-03-23T07:55:55;7.90;99.90
23124;DHT22;11731;48.592;8.858;2024-03-23T07:58:21;8.10;99.90
23124;DHT22;11731;48.592;8.858;2024-03-23T08:00:48;7.90;99.90
23124;DHT22;11731;48.592;8.858;2024-03-23T08:03:14;7.70;99.90
23124;DHT22;11731;48.592;8.858;2024-03-23T08:05:41;7.70;99.90
23124;DHT22;11731;48.592;8.858;2024-03-23T08:08:08;8.00;99.90
23124;DHT22;11731;48.592;8.858;2024-03-23T08:10:36;8.00;99.90
23124;DHT22;11731;48.592;8.858;2024-03-23T08:13:02;8.00;99.90
23124;DHT22;11731;48.592;8.858;2024-03-23T08:15:30;7.80;99.90
23124;DHT22;11731;48.592;8.858;2024-03-23T08:17:58;7.70;99.90
23124;DHT22;11731;48.592;8.858;2024-03-23T08:20:25;7.70;99.90
23124;DHT22;11731;48.592;8.858;2024-03-23T08:22:51;7.70;99.90
23124;DHT22;11731;48.592;8.858;2024-03-23T08:25:19;7.90;99.90
23124;DHT22;11731;48.592;8.858;2024-03-23T08:27:45;7.90;99.90
23124;DHT22;11731;48.592;8.858;2024-03-23T08:30:13;8.00;99.90
23124;DHT22;11731;48.592;8.858;2024-03-23T08:32:39;8.30;99.90
23124;DHT22;11731;48.592;8.858;2024-03-23T08:35:07;8.20;99.90
23124;DHT22;11731;48.592;8.858;2024-03-23T08:37:33;8.00;99.90
23124;DHT22;11731;48.592;8.858;2024-03-23T08:40:00;8.10;99.90
23124;DHT22;11731;48.592;8.858;2024-03-23T08:42:27;8.40;99.90
23124;DHT22;11731;48.592;8.858;2024-03-23T08:44:54;8.30;99.90
23124;DHT22;11731;48.592;8.858;2024-03-23T08:47:21;8.40;99.90
23124;DHT22;11731;48.592;8.858;2024-03-23T08:49:48;8.00;99.90
23124;DHT22;11731;48.592;8.858;2024-03-23T08:52:13;7.90;99.90
23124;DHT22;11731;48.592;8.858;2024-03-23T08:54:40;8.00;99.90
23124;DHT22;11731;48.592;8.858;2024-03-23T08:57:07;7.90;99.90
23124;DHT22;11731;48.592;8.858;2024-03-23T08:59:37;8.20;99.90
23124;DHT22;11731;48.592;8.858;2024-03-23T09:02:03;8.00;99.90
23124;DHT22;11731;48.592;8.858;2024-03-23T09:04:31;8.10;99.90
23124;DHT22;11731;48.592;8.858;2024-03-23T09:06:56;8.40;99.90
23124;DHT22;11731;48.592;8.858;2024-03-23T09:09:25;8.40;99.90
23124;DHT22;11731;48.592;8.858;2024-03-23T09:11:51;8.70;99.90
23124;DHT22;11731;48.592;8.858;2024-03-23T09:14:18;9.00;99.90
23124;DHT22;11731;48.592;8.858;2024-03-23T09:16:46;8.80;99.90
23124;DHT22;11731;48.592;8.858;2024-03-23T09:19:13;8.70;99.90
23124;DHT22;11731;48.592;8.858;2024-03-23T09:21:38;8.80;99.90
23124;DHT22;11731;48.592;8.858;2024-03-23T09:24:06;8.90;99.90
23124;DHT22;11731;48.592;8.858;2024-03-23T09:26:32;8.90;99.90
23124;DHT22;11731;48.592;8.858;2024-03-23T09:28:59;9.10;99.90
23124;DHT22;11731;48.592;8.858;2024-03-23T09:31:25;8.90;99.90
23124;DHT22;11731;48.592;8.858;2024-03-23T09:33:53;8.10;99.90
23124;DHT22;11731;48.592;8.858;2024-03-23T09:36:19;7.60;99.90
23124;DHT22;11731;48.592;8.858;2024-03-23T09:38:46;7.20;99.90
23124;DHT22;11731;48.592;8.858;2024-03-23T09:41:14;7.00;99.90
23124;DHT22;11731;48.592;8.858;2024-03-23T09:43:40;7.10;99.90
23124;DHT22;11731;48.592;8.858;2024-03-23T09:46:07;6.90;99.90
23124;DHT22;11731;48.592;8.858;2024-03-23T09:48:34;6.90;99.90
23124;DHT22;11731;48.592;8.858;2024-03-23T09:51:03;7.00;99.90
23124;DHT22;11731;48.592;8.858;2024-03-23T09:53:30;7.20;99.90
23124;DHT22;11731;48.592;8.858;2024-03-23T09:55:57;7.40;99.90
23124;DHT22;11731;48.592;8.858;2024-03-23T09:58:24;7.60;99.90
23124;DHT22;11731;48.592;8.858;2024-03-23T10:00:49;7.40;99.90
23124;DHT22;11731;48.592;8.858;2024-03-23T10:03:16;7.40;99.90
23124;DHT22;11731;48.592;8.858;2024-03-23T10:05:42;7.40;99.90
23124;DHT22;11731;48.592;8.858;2024-03-23T10:08:19;7.50;99.90
23124;DHT22;11731;48.592;8.858;2024-03-23T10:10:45;7.80;99.90
23124;DHT22;11731;48.592;8.858;2024-03-23T10:13:24;8.00;99.90
23124;DHT22;11731;48.592;8.858;2024-03-23T10:15:55;8.30;99.90
23124;DHT22;11731;48.592;8.858;2024-03-23T10:18:26;8.60;99.90
23124;DHT22;11731;48.592;8.858;2024-03-23T10:21:07;9.20;99.90
23124;DHT22;11731;48.592;8.858;2024-03-23T10:23:39;9.60;99.90
23124;DHT22;11731;48.592;8.858;2024-03-23T10:26:16;9.80;99.90
23124;DHT22;11731;48.592;8.858;2024-03-23T10:28:57;9.80;99.90
23124;DHT22;11731;48.592;8.858;2024-03-23T10:31:25;9.90;99.90
23124;DHT22;11731;48.592;8.858;2024-03-23T10:33:52;9.90;99.90
23124;DHT22;11731;48.592;8.858;2024-03-23T10:36:20;9.40;99.90
23124;DHT22;11731;48.592;8.858;2024-03-23T10:38:50;9.00;99.90
23124;DHT22;11731;48.592;8.858;2024-03-23T10:41:16;8.10;99.90
23124;DHT22;11731;48.592;8.858;2024-03-23T10:43:45;6.40;99.90
23124;DHT22;11731;48.592;8.858;2024-03-23T10:46:11;5.60;99.90
23124;DHT22;11731;48.592;8.858;2024-03-23T10:48:44;5.40;99.90
23124;DHT22;11731;48.592;8.858;2024-03-23T10:51:10;5.60;99.90
23124;DHT22;11731;48.592;8.858;2024-03-23T10:53:37;5.90;99.90
23124;DHT22;11731;48.592;8.858;2024-03-23T10:56:06;6.20;99.90
23124;DHT22;11731;48.592;8.858;2024-03-23T10:58:38;6.40;99.90
23124;DHT22;11731;48.592;8.858;2024-03-23T11:01:04;6.70;99.90
23124;DHT22;11731;48.592;8.858;2024-03-23T11:03:35;6.70;99.90
23124;DHT22;11731;48.592;8.858;2024-03-23T11:06:02;7.20;99.90
23124;DHT22;11731;48.592;8.858;2024-03-23T11:08:31;7.30;99.90
23124;DHT22;11731;48.592;8.858;2024-03-23T11:13:52;7.60;99.90
23124;DHT22;11731;48.592;8.858;2024-03-23T11:16:22;7.60;99.90
23124;DHT22;11731;48.592;8.858;2024-03-23T11:18:49;7.70;99.90
23124;DHT22;11731;48.592;8.858;2024-03-23T11:21:53;8.20;99.90
23124;DHT22;11731;48.592;8.858;2024-03-23T11:24:20;8.40;99.90
23124;DHT22;11731;48.592;8.858;2024-03-23T11:26:47;8.00;99.90
23124;DHT22;11731;48.592;8.858;2024-03-23T11:29:16;7.90;99.90
23124;DHT22;11731;48.592;8.858;2024-03-23T11:31:47;7.80;99.90
23124;DHT22;11731;48.592;8.858;2024-03-23T11:34:13;7.80;99.90
23124;DHT22;11731;48.592;8.858;2024-03-23T11:36:41;8.10;99.90
23124;DHT22;11731;48.592;8.858;2024-03-23T11:39:17;7.90;99.90
23124;DHT22;11731;48.592;8.858;2024-03-23T11:41:48;8.10;99.90
23124;DHT22;11731;48.592;8.858;2024-03-23T11:44:19;8.00;99.90
23124;DHT22;11731;48.592;8.858;2024-03-23T11:46:48;8.20;99.90
23124;DHT22;11731;48.592;8.858;2024-03-23T11:49:21;8.40;99.90
23124;DHT22;11731;48.592;8.858;2024-03-23T11:51:49;8.50;99.90
23124;DHT22;11731;48.592;8.858;2024-03-23T11:54:15;8.80;99.90
23124;DHT22;11731;48.592;8.858;2024-03-23T11:56:54;8.20;99.90
23124;DHT22;11731;48.592;8.858;2024-03-23T11:59:32;8.00;99.90
23124;DHT22;11731;48.592;8.858;2024-03-23T12:01:59;8.20;99.90
23124;DHT22;11731;48.592;8.858;2024-03-23T12:04:26;8.50;99.90
23124;DHT22;11731;48.592;8.858;2024-03-23T12:07:14;8.70;99.90
23124;DHT22;11731;48.592;8.858;2024-03-23T12:09:40;9.00;99.90
23124;DHT22;11731;48.592;8.858;2024-03-23T12:12:10;8.80;99.90
23124;DHT22;11731;48.592;8.858;2024-03-23T12:14:38;8.70;99.90
23124;DHT22;11731;48.592;8.858;2024-03-23T12:17:09;8.60;99.90
23124;DHT22;11731;48.592;8.858;2024-03-23T12:19:35;8.40;99.90
23124;DHT22;11731;48.592;8.858;2024-03-23T12:22:03;8.60;99.90
23124;DHT22;11731;48.592;8.858;2024-03-23T12:24:29;8.50;99.90
23124;DHT22;11731;48.592;8.858;2024-03-23T12:27:00;8.40;99.90
23124;DHT22;11731;48.592;8.858;2024-03-23T12:29:28;8.40;99.90
23124;DHT22;11731;48.592;8.858;2024-03-23T12:31:58;8.60;99.90
23124;DHT22;11731;48.592;8.858;2024-03-23T12:34:24;8.60;99.90
23124;DHT22;11731;48.592;8.858;2024-03-23T12:36:51;8.60;99.90
23124;DHT22;11731;48.592;8.858;2024-03-23T12:39:17;9.00;99.90
23124;DHT22;11731;48.592;8.858;2024-03-23T12:41:45;9.00;99.90
23124;DHT22;11731;48.592;8.858;2024-03-23T12:44:11;8.90;99.90
23124;DHT22;11731;48.592;8.858;2024-03-23T12:46:39;8.90;99.90
23124;DHT22;11731;48.592;8.858;2024-03-23T12:49:06;9.00;99.90
23124;DHT22;11731;48.592;8.858;2024-03-23T12:51:33;8.90;99.90
23124;DHT22;11731;48.592;8.858;2024-03-23T12:53:59;8.70;99.90
23124;DHT22;11731;48.592;8.858;2024-03-23T12:56:27;8.80;99.90
23124;DHT22;11731;48.592;8.858;2024-03-23T12:58:53;8.90;99.90
23124;DHT22;11731;48.592;8.858;2024-03-23T13:01:22;8.40;99.90
23124;DHT22;11731;48.592;8.858;2024-03-23T13:03:48;6.50;99.90
23124;DHT22;11731;48.592;8.858;2024-03-23T13:06:17;5.10;99.90
23124;DHT22;11731;48.592;8.858;2024-03-23T13:08:44;4.60;99.90
23124;DHT22;11731;48.592;8.858;2024-03-23T13:11:11;4.80;99.90
23124;DHT22;11731;48.592;8.858;2024-03-23T13:13:37;5.20;99.90
23124;DHT22;11731;48.592;8.858;2024-03-23T13:16:05;5.50;99.90
23124;DHT22;11731;48.592;8.858;2024-03-23T13:18:31;5.70;99.90
23124;DHT22;11731;48.592;8.858;2024-03-23T13:20:58;6.10;99.90
23124;DHT22;11731;48.592;8.858;2024-03-23T13:23:26;6.30;99.90
23124;DHT22;11731;48.592;8.858;2024-03-23T13:25:54;6.40;99.90
23124;DHT22;11731;48.592;8.858;2024-03-23T13:28:20;6.70;99.90
23124;DHT22;11731;48.592;8.858;2024-03-23T13:30:51;7.10;99.90
23124;DHT22;11731;48.592;8.858;2024-03-23T13:33:17;7.10;99.90
23124;DHT22;11731;48.592;8.858;2024-03-23T13:35:49;7.20;99.90
23124;DHT22;11731;48.592;8.858;2024-03-23T13:38:15;7.40;99.90
23124;DHT22;11731;48.592;8.858;2024-03-23T13:40:51;7.30;99.90
23124;DHT22;11731;48.592;8.858;2024-03-23T13:43:17;7.50;99.90
23124;DHT22;11731;48.592;8.858;2024-03-23T13:45:44;7.80;99.90
23124;DHT22;11731;48.592;8.858;2024-03-23T13:48:10;7.90;99.90
23124;DHT22;11731;48.592;8.858;2024-03-23T13:50:37;7.90;99.90
23124;DHT22;11731;48.592;8.858;2024-03-23T13:53:03;8.10;99.90
23124;DHT22;11731;48.592;8.858;2024-03-23T13:55:31;7.90;99.90
23124;DHT22;11731;48.592;8.858;2024-03-23T13:57:58;7.80;99.90
23124;DHT22;11731;48.592;8.858;2024-03-23T14:00:25;7.80;99.90
23124;DHT22;11731;48.592;8.858;2024-03-23T14:02:50;7.50;99.90
23124;DHT22;11731;48.592;8.858;2024-03-23T14:05:17;7.60;99.90
23124;DHT22;11731;48.592;8.858;2024-03-23T14:07:43;7.70;99.90
23124;DHT22;11731;48.592;8.858;2024-03-23T14:10:10;7.80;99.90
23124;DHT22;11731;48.592;8.858;2024-03-23T14:12:36;8.00;99.90
23124;DHT22;11731;48.592;8.858;2024-03-23T14:15:07;8.30;99.90
23124;DHT22;11731;48.592;8.858;2024-03-23T14:17:33;8.30;99.90
23124;DHT22;11731;48.592;8.858;2024-03-23T14:19:59;8.20;99.90
23124;DHT22;11731;48.592;8.858;2024-03-23T14:22:27;8.30;99.90
23124;DHT22;11731;48.592;8.858;2024-03-23T14:24:54;8.20;99.90
23124;DHT22;11731;48.592;8.858;2024-03-23T14:27:19;8.40;99.90
23124;DHT22;11731;48.592;8.858;2024-03-23T14:29:47;8.40;99.90
23124;DHT22;11731;48.592;8.858;2024-03-23T14:32:14;7.90;99.90
23124;DHT22;11731;48.592;8.858;2024-03-23T14:34:41;8.10;99.90
23124;DHT22;11731;48.592;8.858;2024-03-23T14:37:07;8.10;99.90
23124;DHT22;11731;48.592;8.858;2024-03-23T14:39:34;8.10;99.90
23124;DHT22;11731;48.592;8.858;2024-03-23T14:42:00;8.10;99.90
23124;DHT22;11731;48.592;8.858;2024-03-23T14:44:28;8.00;99.90
23124;DHT22;11731;48.592;8.858;2024-03-23T14:46:54;7.40;99.90
23124;DHT22;11731;48.592;8.858;2024-03-23T14:49:22;7.20;99.90
23124;DHT22;11731;48.592;8.858;2024-03-23T14:51:49;6.80;99.90
23124;DHT22;11731;48.592;8.858;2024-03-23T14:54:17;6.90;99.90
23124;DHT22;11731;48.592;8.858;2024-03-23T14:56:42;6.70;99.90
23124;DHT22;11731;48.592;8.858;2024-03-23T14:59:09;6.50;99.90
23124;DHT22;11731;48.592;8.858;2024-03-23T15:01:35;6.70;99.90
23124;DHT22;11731;48.592;8.858;2024-03-23T15:04:02;7.20;99.90
23124;DHT22;11731;48.592;8.858;2024-03-23T15:06:30;7.30;99.90
23124;DHT22;11731;48.592;8.858;2024-03-23T15:08:59;7.40;99.90
23124;DHT22;11731;48.592;8.858;2024-03-23T15:11:25;7.60;99.90
23124;DHT22;11731;48.592;8.858;2024-03-23T15:13:52;7.90;99.90
23124;DHT22;11731;48.592;8.858;2024-03-23T15:16:17;8.00;99.90
23124;DHT22;11731;48.592;8.858;2024-03-23T15:18:45;7.90;99.90
23124;DHT22;11731;48.592;8.858;2024-03-23T15:21:11;7.70;99.90
23124;DHT22;11731;48.592;8.858;2024-03-23T15:23:42;7.90;99.90
23124;DHT22;11731;48.592;8.858;2024-03-23T15:26:09;7.90;99.90
23124;DHT22;11731;48.592;8.858;2024-03-23T15:28:36;7.80;99.90
23124;DHT22;11731;48.592;8.858;2024-03-23T15:31:07;7.60;99.90
23124;DHT22;11731;48.592;8.858;2024-03-23T15:33:35;7.40;99.90
23124;DHT22;11731;48.592;8.858;2024-03-23T15:36:02;7.30;99.90
23124;DHT22;11731;48.592;8.858;2024-03-23T15:38:30;7.00;99.90
23124;DHT22;11731;48.592;8.858;2024-03-23T15:40:58;6.70;99.90
23124;DHT22;11731;48.592;8.858;2024-03-23T15:43:25;6.70;99.90
23124;DHT22;11731;48.592;8.858;2024-03-23T15:45:55;6.80;99.90
23124;DHT22;11731;48.592;8.858;2024-03-23T15:48:21;6.70;99.90
23124;DHT22;11731;48.592;8.858;2024-03-23T15:50:51;6.70;99.90
23124;DHT22;11731;48.592;8.858;2024-03-23T15:53:19;7.00;99.90
23124;DHT22;11731;48.592;8.858;2024-03-23T15:55:45;6.60;99.90
23124;DHT22;11731;48.592;8.858;2024-03-23T15:58:13;6.30;99.90
23124;DHT22;11731;48.592;8.858;2024-03-23T16:00:42;6.30;99.90
23124;DHT22;11731;48.592;8.858;2024-03-23T16:03:08;6.40;99.90
23124;DHT22;11731;48.592;8.858;2024-03-23T16:05:34;6.30;99.90
23124;DHT22;11731;48.592;8.858;2024-03-23T16:08:01;6.30;99.90
23124;DHT22;11731;48.592;8.858;2024-03-23T16:10:27;6.10;99.90
23124;DHT22;11731;48.592;8.858;2024-03-23T16:12:54;6.00;99.90
23124;DHT22;11731;48.592;8.858;2024-03-23T16:15:21;6.30;99.90
23124;DHT22;11731;48.592;8.858;2024-03-23T16:17:48;6.30;99.90
23124;DHT22;11731;48.592;8.858;2024-03-23T16:20:14;6.50;99.90
23124;DHT22;11731;48.592;8.858;2024-03-23T16:22:41;6.70;99.90
23124;DHT22;11731;48.592;8.858;2024-03-23T16:25:07;6.70;99.90
23124;DHT22;11731;48.592;8.858;2024-03-23T16:27:34;6.60;99.90
23124;DHT22;11731;48.592;8.858;2024-03-23T16:30:00;6.80;99.90
23124;DHT22;11731;48.592;8.858;2024-03-23T16:32:29;6.80;99.90
23124;DHT22;11731;48.592;8.858;2024-03-23T16:35:00;7.00;99.90
23124;DHT22;11731;48.592;8.858;2024-03-23T16:37:27;6.80;99.90
23124;DHT22;11731;48.592;8.858;2024-03-23T16:39:53;6.80;99.90
23124;DHT22;11731;48.592;8.858;2024-03-23T16:42:20;6.70;99.90
23124;DHT22;11731;48.592;8.858;2024-03-23T16:44:47;6.80;99.90
23124;DHT22;11731;48.592;8.858;2024-03-23T16:47:13;6.80;99.90
23124;DHT22;11731;48.592;8.858;2024-03-23T16:49:41;7.00;99.90
23124;DHT22;11731;48.592;8.858;2024-03-23T16:52:07;6.80;99.90
23124;DHT22;11731;48.592;8.858;2024-03-23T16:54:35;6.60;99.90
23124;DHT22;11731;48.592;8.858;2024-03-23T16:57:02;6.60;99.90
23124;DHT22;11731;48.592;8.858;2024-03-23T16:59:28;6.60;99.90
23124;DHT22;11731;48.592;8.858;2024-03-23T17:01:55;6.60;99.90
23124;DHT22;11731;48.592;8.858;2024-03-23T17:04:21;6.70;99.90
23124;DHT22;11731;48.592;8.858;2024-03-23T17:06:50;6.50;99.90
23124;DHT22;11731;48.592;8.858;2024-03-23T17:09:16;6.60;99.90
23124;DHT22;11731;48.592;8.858;2024-03-23T17:11:43;6.50;99.90
23124;DHT22;11731;48.592;8.858;2024-03-23T17:14:11;6.20;99.90
23124;DHT22;11731;48.592;8.858;2024-03-23T17:16:38;6.30;99.90
23124;DHT22;11731;48.592;8.858;2024-03-23T17:19:04;6.60;99.90
23124;DHT22;11731;48.592;8.858;2024-03-23T17:21:31;6.70;99.90
23124;DHT22;11731;48.592;8.858;2024-03-23T17:23:58;6.40;99.90
23124;DHT22;11731;48.592;8.858;2024-03-23T17:26:25;5.90;99.90
23124;DHT22;11731;48.592;8.858;2024-03-23T17:28:51;5.70;99.90
23124;DHT22;11731;48.592;8.858;2024-03-23T17:31:18;5.40;99.90
23124;DHT22;11731;48.592;8.858;2024-03-23T17:33:44;5.40;99.90
23124;DHT22;11731;48.592;8.858;2024-03-23T17:36:11;5.60;99.90
23124;DHT22;11731;48.592;8.858;2024-03-23T17:38:37;5.50;99.90
23124;DHT22;11731;48.592;8.858;2024-03-23T17:41:05;5.40;99.90
23124;DHT22;11731;48.592;8.858;2024-03-23T17:43:31;5.10;99.90
23124;DHT22;11731;48.592;8.858;2024-03-23T17:45:59;5.30;99.90
23124;DHT22;11731;48.592;8.858;2024-03-23T17:48:25;5.40;99.90
23124;DHT22;11731;48.592;8.858;2024-03-23T17:51:01;4.80;99.90
23124;DHT22;11731;48.592;8.858;2024-03-23T17:53:27;4.50;99.90
23124;DHT22;11731;48.592;8.858;2024-03-23T17:55:53;4.30;99.90
23124;DHT22;11731;48.592;8.858;2024-03-23T17:58:21;4.40;99.90
23124;DHT22;11731;48.592;8.858;2024-03-23T18:00:48;4.50;99.90
23124;DHT22;11731;48.592;8.858;2024-03-23T18:03:36;4.50;99.90
23124;DHT22;11731;48.592;8.858;2024-03-23T18:06:13;4.50;99.90
23124;DHT22;11731;48.592;8.858;2024-03-23T18:08:42;4.70;99.90
23124;DHT22;11731;48.592;8.858;2024-03-23T18:11:11;5.10;99.90
23124;DHT22;11731;48.592;8.858;2024-03-23T18:13:57;5.10;99.90
23124;DHT22;11731;48.592;8.858;2024-03-23T18:16:25;5.10;99.90
23124;DHT22;11731;48.592;8.858;2024-03-23T18:18:54;5.30;99.90
23124;DHT22;11731;48.592;8.858;2024-03-23T18:21:21;5.70;99.90
23124;DHT22;11731;48.592;8.858;2024-03-23T18:23:47;5.60;99.90
23124;DHT22;11731;48.592;8.858;2024-03-23T18:26:14;5.80;99.90
23124;DHT22;11731;48.592;8.858;2024-03-23T18:28:40;5.70;99.90
23124;DHT22;11731;48.592;8.858;2024-03-23T18:31:08;5.90;99.90
23124;DHT22;11731;48.592;8.858;2024-03-23T18:33:36;6.00;99.90
23124;DHT22;11731;48.592;8.858;2024-03-23T18:36:04;6.00;99.90
23124;DHT22;11731;48.592;8.858;2024-03-23T18:38:30;5.80;99.90
23124;DHT22;11731;48.592;8.858;2024-03-23T18:40:57;6.10;99.90
23124;DHT22;11731;48.592;8.858;2024-03-23T18:43:23;6.20;99.90
23124;DHT22;11731;48.592;8.858;2024-03-23T18:45:52;6.40;99.90
23124;DHT22;11731;48.592;8.858;2024-03-23T18:48:20;6.60;99.90
23124;DHT22;11731;48.592;8.858;2024-03-23T18:50:47;6.70;99.90
23124;DHT22;11731;48.592;8.858;2024-03-23T18:53:12;6.70;99.90
23124;DHT22;11731;48.592;8.858;2024-03-23T18:55:40;6.90;99.90
23124;DHT22;11731;48.592;8.858;2024-03-23T18:58:07;7.00;99.90
23124;DHT22;11731;48.592;8.858;2024-03-23T19:00:34;7.20;99.90
23124;DHT22;11731;48.592;8.858;2024-03-23T19:03:00;7.10;99.90
23124;DHT22;11731;48.592;8.858;2024-03-23T19:05:28;6.90;99.90
23124;DHT22;11731;48.592;8.858;2024-03-23T19:07:54;6.90;99.90
23124;DHT22;11731;48.592;8.858;2024-03-23T19:13:19;6.90;99.90
23124;DHT22;11731;48.592;8.858;2024-03-23T19:15:46;6.70;99.90
23124;DHT22;11731;48.592;8.858;2024-03-23T19:18:12;6.00;99.90
23124;DHT22;11731;48.592;8.858;2024-03-23T19:20:41;5.50;99.90
23124;DHT22;11731;48.592;8.858;2024-03-23T19:23:07;5.30;99.90
23124;DHT22;11731;48.592;8.858;2024-03-23T19:25:34;4.90;99.90
23124;DHT22;11731;48.592;8.858;2024-03-23T19:28:01;4.80;99.90
23124;DHT22;11731;48.592;8.858;2024-03-23T19:30:28;5.00;99.90
23124;DHT22;11731;48.592;8.858;2024-03-23T19:32:55;5.00;99.90
23124;DHT22;11731;48.592;8.858;2024-03-23T19:35:22;4.90;99.90
23124;DHT22;11731;48.592;8.858;2024-03-23T19:37:50;4.90;99.90
23124;DHT22;11731;48.592;8.858;2024-03-23T19:40:20;5.10;99.90
23124;DHT22;11731;48.592;8.858;2024-03-23T19:42:46;5.40;99.90
23124;DHT22;11731;48.592;8.858;2024-03-23T19:45:13;5.90;99.90
23124;DHT22;11731;48.592;8.858;2024-03-23T19:47:41;6.10;99.90
23124;DHT22;11731;48.592;8.858;2024-03-23T19:50:08;6.20;99.90
23124;DHT22;11731;48.592;8.858;2024-03-23T19:52:35;6.10;99.90
23124;DHT22;11731;48.592;8.858;2024-03-23T19:55:04;6.10;99.90
23124;DHT22;11731;48.592;8.858;2024-03-23T19:57:30;5.80;99.90
23124;DHT22;11731;48.592;8.858;2024-03-23T19:59:57;5.80;99.90
23124;DHT22;11731;48.592;8.858;2024-03-23T20:02:24;6.10;99.90
23124;DHT22;11731;48.592;8.858;2024-03-23T20:04:50;6.20;99.90
23124;DHT22;11731;48.592;8.858;2024-03-23T20:07:17;5.80;99.90
23124;DHT22;11731;48.592;8.858;2024-03-23T20:09:43;5.40;99.90
23124;DHT22;11731;48.592;8.858;2024-03-23T20:12:11;5.20;99.90
23124;DHT22;11731;48.592;8.858;2024-03-23T20:14:37;5.60;99.90
23124;DHT22;11731;48.592;8.858;2024-03-23T20:17:07;6.10;99.90
23124;DHT22;11731;48.592;8.858;2024-03-23T20:19:33;6.20;99.90
23124;DHT22;11731;48.592;8.858;2024-03-23T20:22:00;6.20;99.90
23124;DHT22;11731;48.592;8.858;2024-03-23T20:24:26;6.30;99.90
23124;DHT22;11731;48.592;8.858;2024-03-23T20:26:53;6.40;99.90
23124;DHT22;11731;48.592;8.858;2024-03-23T20:29:21;6.50;99.90
23124;DHT22;11731;48.592;8.858;2024-03-23T20:31:48;6.60;99.90
23124;DHT22;11731;48.592;8.858;2024-03-23T20:34:14;6.30;99.90
23124;DHT22;11731;48.592;8.858;2024-03-23T20:36:42;6.30;99.90
23124;DHT22;11731;48.592;8.858;2024-03-23T20:39:12;6.20;99.90
23124;DHT22;11731;48.592;8.858;2024-03-23T20:41:45;6.10;99.90
23124;DHT22;11731;48.592;8.858;2024-03-23T20:44:11;6.10;99.90
23124;DHT22;11731;48.592;8.858;2024-03-23T20:46:39;6.20;99.90
23124;DHT22;11731;48.592;8.858;2024-03-23T20:49:05;6.10;99.90
23124;DHT22;11731;48.592;8.858;2024-03-23T20:51:32;5.70;99.90
23124;DHT22;11731;48.592;8.858;2024-03-23T20:53:58;5.10;99.90
23124;DHT22;11731;48.592;8.858;2024-03-23T20:56:25;5.00;99.90
23124;DHT22;11731;48.592;8.858;2024-03-23T20:58:51;5.00;99.90
23124;DHT22;11731;48.592;8.858;2024-03-23T21:01:18;5.00;99.90
23124;DHT22;11731;48.592;8.858;2024-03-23T21:03:45;5.20;99.90
23124;DHT22;11731;48.592;8.858;2024-03-23T21:06:12;4.80;99.90
23124;DHT22;11731;48.592;8.858;2024-03-23T21:08:38;4.50;99.90
23124;DHT22;11731;48.592;8.858;2024-03-23T21:11:05;4.50;99.90
23124;DHT22;11731;48.592;8.858;2024-03-23T21:13:33;4.60;99.90
23124;DHT22;11731;48.592;8.858;2024-03-23T21:16:00;4.70;99.90
23124;DHT22;11731;48.592;8.858;2024-03-23T21:18:27;4.70;99.90
23124;DHT22;11731;48.592;8.858;2024-03-23T21:20:56;4.60;99.90